Weather

Clear
Tuesday 08/14 20%
Clear
A good deal of sunshine. A stray shower or thunderstorm is possible. High 94F. Winds ENE at 5 to 10 mph.
Clear
Wednesday 08/15 20%
Clear
Mostly sunny skies. A stray shower or thunderstorm is possible. High 94F. Winds S at 5 to 10 mph.
Clear
Thursday 08/16 20%
Clear
Mostly sunny skies. A stray shower or thunderstorm is possible. High 92F. Winds W at 5 to 10 mph.
Partly Cloudy
Friday 08/17 20%
Partly Cloudy
Sunshine and clouds mixed. A stray shower or thunderstorm is possible. High 92F. Winds SSE at 5 to 10 mph.
Clear
Saturday 08/18 20%
Clear
Except for a few afternoon clouds, mainly sunny. A stray shower or thunderstorm is possible. High 93F. Winds W at 5 to 10 mph.

 

 

For a detailed forecast click the banner below.

ballooncastlogo

 

 

Available data for KABQ from the past 2 hours
ALBUQUERQUE, NM
Metar
KABQ 140952Z 13003KT 10SM CLR 18/10 A3006 RMK AO2 SLP090 T01830100 $

09:52 UTC

Wind: 130° 3kt

Visibility: 10 SM

Sky:

Temp: 18 deg C / 64.4 deg F

Dewpoint: 10 deg C / 50 deg F

Pressure: 30.06 inHg

TAF
KABQ 140539Z 1406/1506 01006KT P6SM SCT110 FM141800 VRB06KT P6SM SCT110 FM150000 15010KT P6SM SCT110 FM150300 10011KT P6SM VCSH SCT070 BKN110